Time;durP1;ratioP1;P1;durP2;ratioP2;P2;SDS_P1;SDS_P2;PMS_P1;PMS_P2;Temp;Humidity;BMP_temperature;BMP_pressure;BME280_temperature;BME280_humidity;BME280_pressure;Samples;Min_cycle;Max_cycle;Signal;HPM_P1;HPM_P2
2023/01/31 00:01:10;;;;;;;6.90;1.05;;;;;;;5.44;70.43;101078.94;5049869;28;20144;-47
2023/01/31 00:03:38;;;;;;;14.07;1.25;;;;;;;5.42;70.06;101078.00;5048047;28;20084;-47
2023/01/31 00:06:11;;;;;;;5.78;1.27;;;;;;;5.39;70.05;101069.38;5049141;28;20164;-48
2023/01/31 00:08:38;;;;;;;4.38;1.42;;;;;;;5.41;71.15;101077.16;5030556;28;20127;-47
2023/01/31 00:11:05;;;;;;;8.73;1.30;;;;;;;5.41;69.74;101066.88;5049001;28;20048;-52
2023/01/31 00:13:32;;;;;;;9.90;1.67;;;;;;;5.42;69.99;101067.72;5047164;28;20128;-52
2023/01/31 00:15:59;;;;;;;5.55;1.20;;;;;;;5.40;70.73;101060.84;5047127;28;20567;-47
2023/01/31 00:18:26;;;;;;;5.95;1.45;;;;;;;5.42;70.49;101065.16;5047260;28;20564;-48
2023/01/31 00:20:52;;;;;;;5.85;1.35;;;;;;;5.43;69.99;101064.34;5054778;28;20102;-49
2023/01/31 00:23:19;;;;;;;6.82;1.58;;;;;;;5.42;71.19;101053.19;5046498;28;20096;-51
2023/01/31 00:25:45;;;;;;;10.63;1.38;;;;;;;5.44;70.68;101055.81;5053933;28;20059;-50
2023/01/31 00:28:12;;;;;;;6.65;2.17;;;;;;;5.42;71.23;101054.88;5053889;28;20122;-49
2023/01/31 00:30:39;;;;;;;5.72;1.42;;;;;;;5.39;70.59;101043.69;5053581;28;20806;-49
2023/01/31 00:33:06;;;;;;;5.93;1.48;;;;;;;5.40;69.91;101042.84;5061159;28;20558;-49
2023/01/31 00:35:33;;;;;;;9.77;1.92;;;;;;;5.40;70.68;101045.44;5055426;28;20069;-48
2023/01/31 00:38:00;;;;;;;7.18;1.77;;;;;;;5.39;71.01;101046.25;5052035;28;20040;-48
2023/01/31 00:40:26;;;;;;;7.28;1.40;;;;;;;5.40;70.54;101050.56;5055369;28;20106;-51
2023/01/31 00:42:54;;;;;;;7.43;1.08;;;;;;;5.40;71.20;101050.56;5053279;28;20052;-48
2023/01/31 00:45:21;;;;;;;5.03;1.80;;;;;;;5.40;71.50;101040.28;5050758;28;20055;-50
2023/01/31 00:47:48;;;;;;;8.50;1.42;;;;;;;5.42;70.27;101042.03;5058437;28;20041;-48
2023/01/31 00:50:15;;;;;;;8.25;1.52;;;;;;;5.40;70.31;101045.44;5053989;28;20139;-48
2023/01/31 00:52:42;;;;;;;9.43;1.30;;;;;;;5.43;70.93;101034.38;5051806;28;20052;-48
2023/01/31 00:55:09;;;;;;;3.28;1.42;;;;;;;5.44;71.05;101036.13;5050946;28;20078;-49
2023/01/31 00:57:35;;;;;;;4.65;1.27;;;;;;;5.45;70.72;101032.75;5055900;28;20600;-50
2023/01/31 01:00:03;;;;;;;7.35;2.88;;;;;;;5.46;70.15;101023.31;5037264;28;20099;-48
2023/01/31 01:02:30;;;;;;;7.95;1.38;;;;;;;5.47;70.21;101020.81;5041442;28;20080;-48
2023/01/31 01:04:56;;;;;;;3.58;2.03;;;;;;;5.45;70.36;101021.59;5038973;28;20571;-47
2023/01/31 01:07:23;;;;;;;9.07;1.55;;;;;;;5.45;71.25;101016.44;5037937;28;20492;-50
2023/01/31 01:09:51;;;;;;;9.93;1.33;;;;;;;5.45;71.48;101011.31;5034216;28;20091;-50
2023/01/31 01:12:17;;;;;;;5.32;1.10;;;;;;;5.46;70.68;101002.75;5033270;28;20052;-49
2023/01/31 01:14:44;;;;;;;5.65;0.65;;;;;;;5.48;70.48;100996.00;5043319;28;21585;-47
2023/01/31 01:17:10;;;;;;;5.10;0.95;;;;;;;5.48;70.49;100989.16;5034432;28;20052;-47
2023/01/31 01:19:37;;;;;;;3.35;0.85;;;;;;;5.49;71.26;100992.59;5038344;28;20057;-48
2023/01/31 01:22:04;;;;;;;4.88;1.25;;;;;;;5.50;71.04;100994.34;5032050;28;20056;-48
2023/01/31 01:24:30;;;;;;;10.07;1.38;;;;;;;5.50;71.32;100989.19;5043124;28;20079;-48
2023/01/31 01:26:58;;;;;;;5.70;1.80;;;;;;;5.51;70.60;100990.97;5044712;28;20572;-46
2023/01/31 01:29:24;;;;;;;10.48;1.70;;;;;;;5.51;70.14;100978.13;5045397;28;20064;-48
2023/01/31 01:31:51;;;;;;;6.57;0.85;;;;;;;5.51;70.59;100975.53;5045001;28;20053;-51
2023/01/31 01:34:18;;;;;;;9.85;1.17;;;;;;;5.52;70.32;100969.56;5044772;28;20057;-47
2023/01/31 01:36:45;;;;;;;6.75;1.13;;;;;;;5.51;70.34;100955.00;5039725;28;20690;-48
2023/01/31 01:39:13;;;;;;;3.00;1.00;;;;;;;5.49;70.36;100954.94;5036299;28;20045;-48
2023/01/31 01:41:40;;;;;;;12.95;2.05;;;;;;;5.51;71.78;100952.41;5042937;28;20064;-48
2023/01/31 01:44:47;;;;;;;7.57;1.63;;;;;;;5.50;70.64;100943.81;5046259;28;20566;-49
2023/01/31 01:47:19;;;;;;;7.53;1.98;;;;;;;5.53;70.59;100933.66;5041083;28;20053;-50
2023/01/31 01:49:52;;;;;;;6.97;1.80;;;;;;;5.54;70.44;100944.78;5041874;28;20072;-47
2023/01/31 01:52:22;;;;;;;13.15;1.27;;;;;;;5.56;71.81;100943.16;5036361;28;20048;-47
2023/01/31 01:55:02;;;;;;;3.83;2.55;;;;;;;5.55;71.56;100928.56;5040299;28;20509;-48
2023/01/31 01:57:34;;;;;;;6.60;1.35;;;;;;;5.60;71.42;100937.28;5041303;28;20065;-48
2023/01/31 02:02:47;;;;;;;6.53;2.05;;;;;;;5.61;70.38;100931.31;5084002;28;20369;-48
2023/01/31 02:05:20;;;;;;;6.03;2.30;;;;;;;5.61;70.98;100936.44;5027114;28;20065;-49
2023/01/31 02:07:47;;;;;;;11.25;2.63;;;;;;;5.63;71.26;100921.09;5021803;28;20119;-48
2023/01/31 02:10:37;;;;;;;10.68;2.50;;;;;;;5.59;71.64;100916.66;5021550;28;20042;-49
2023/01/31 02:13:04;;;;;;;6.43;2.30;;;;;;;5.60;71.46;100916.72;5018587;28;20111;-47
2023/01/31 02:15:30;;;;;;;4.97;2.35;;;;;;;5.58;71.27;100914.94;5021865;28;20077;-47
2023/01/31 02:17:57;;;;;;;5.38;2.22;;;;;;;5.57;70.71;100923.47;5022413;28;20058;-48
2023/01/31 02:26:17;;;;;;;11.63;2.45;;;;;;;5.72;71.74;100923.06;5054631;27;20409;-50
2023/01/31 02:32:00;;;;;;;5.10;0.88;;;;;;;5.65;71.74;100917.72;5040659;28;21158;-48
2023/01/31 02:40:05;;;;;;;8.60;1.23;;;;;;;5.63;71.77;100893.69;5086141;27;21098;-48
2023/01/31 02:45:20;;;;;;;4.78;1.23;;;;;;;5.59;70.90;100907.28;5055802;28;20379;-49
2023/01/31 02:50:29;;;;;;;11.30;1.48;;;;;;;5.60;71.06;100903.88;5016217;27;20397;-49
2023/01/31 02:58:37;;;;;;;3.65;0.77;;;;;;;5.60;70.99;100911.59;5010033;28;20688;-50
2023/01/31 03:01:05;;;;;;;8.27;1.02;;;;;;;5.63;72.41;100908.22;5000526;28;20081;-49
2023/01/31 03:03:36;;;;;;;6.38;1.33;;;;;;;5.61;71.50;100915.88;5000736;28;20705;-51
2023/01/31 03:11:57;;;;;;;5.97;0.75;;;;;;;5.56;72.22;100908.84;5057693;28;20754;-50
2023/01/31 03:14:31;;;;;;;4.63;2.03;;;;;;;5.57;71.07;100914.06;5021121;28;20065;-52
2023/01/31 03:19:40;;;;;;;7.68;1.20;;;;;;;5.56;71.43;100907.16;5099416;27;20398;-50
2023/01/31 03:22:15;;;;;;;4.25;0.55;;;;;;;5.53;72.06;100907.94;5079590;28;20659;-49
2023/01/31 03:24:46;;;;;;;8.45;1.23;;;;;;;5.52;71.94;100916.50;5075210;28;20467;-50
2023/01/31 03:27:14;;;;;;;10.93;1.48;;;;;;;5.50;72.14;100914.66;5057515;28;20126;-49
2023/01/31 03:29:42;;;;;;;7.68;1.13;;;;;;;5.50;72.31;100912.09;5060079;28;20075;-50
2023/01/31 03:32:19;;;;;;;8.13;1.45;;;;;;;5.49;71.95;100910.38;5075359;28;20071;-51
2023/01/31 03:34:46;;;;;;;6.03;0.73;;;;;;;5.47;72.36;100906.88;5067995;28;20496;-48
2023/01/31 03:45:54;;;;;;;7.30;1.45;;;;;;;5.57;71.87;100910.63;5050533;27;20398;-49
2023/01/31 03:48:23;;;;;;;8.98;1.00;;;;;;;5.59;72.09;100912.41;5021182;28;20052;-50
2023/01/31 03:50:56;;;;;;;6.53;1.35;;;;;;;5.64;72.17;100904.84;5015504;28;20069;-48
2023/01/31 03:56:07;;;;;;;5.57;1.00;;;;;;;5.67;71.58;100889.50;5024015;27;20398;-48
2023/01/31 03:58:49;;;;;;;7.28;1.35;;;;;;;5.69;71.25;100887.00;5015587;28;20480;-49
2023/01/31 04:01:18;;;;;;;8.60;0.80;;;;;;;5.69;71.84;100876.72;5021611;28;20084;-48
2023/01/31 04:03:53;;;;;;;4.22;1.10;;;;;;;5.70;71.21;100873.31;5020885;28;20057;-48
2023/01/31 04:06:19;;;;;;;5.05;1.30;;;;;;;5.70;71.26;100865.59;5021375;28;20050;-48
2023/01/31 04:08:46;;;;;;;6.78;1.10;;;;;;;5.70;71.19;100860.44;5022547;28;20073;-48
2023/01/31 04:11:14;;;;;;;8.82;1.17;;;;;;;5.68;72.35;100860.44;5020439;28;20144;-48
2023/01/31 04:13:41;;;;;;;13.00;1.55;;;;;;;5.66;71.79;100844.97;5014248;28;20076;-49
2023/01/31 04:16:08;;;;;;;6.65;1.10;;;;;;;5.69;71.18;100856.13;5021919;28;20069;-48
2023/01/31 04:18:34;;;;;;;9.23;1.20;;;;;;;5.65;72.77;100848.34;5020509;28;20053;-49
2023/01/31 04:21:04;;;;;;;4.55;0.93;;;;;;;5.65;71.23;100850.91;5021883;28;20545;-48
2023/01/31 04:23:31;;;;;;;8.05;1.45;;;;;;;5.63;71.78;100847.44;5018700;28;20485;-49
2023/01/31 04:25:57;;;;;;;8.90;1.52;;;;;;;5.63;72.17;100847.44;5019684;28;20658;-48
2023/01/31 04:28:24;;;;;;;6.70;1.05;;;;;;;5.61;72.35;100849.06;5020289;28;20489;-49
2023/01/31 04:30:53;;;;;;;6.45;1.25;;;;;;;5.63;72.51;100846.53;5017933;28;20081;-49
2023/01/31 04:33:20;;;;;;;12.32;1.33;;;;;;;5.58;72.27;100849.00;5033215;28;20046;-47
2023/01/31 04:35:47;;;;;;;5.72;1.42;;;;;;;5.60;71.63;100849.00;5019811;28;20042;-48
2023/01/31 04:38:13;;;;;;;9.90;1.30;;;;;;;5.60;71.44;100842.19;5020801;28;20077;-48
2023/01/31 04:40:40;;;;;;;4.55;1.33;;;;;;;5.60;73.17;100837.06;5018163;28;20081;-47
2023/01/31 04:43:07;;;;;;;5.07;1.17;;;;;;;5.63;73.04;100837.16;5013366;28;20045;-48
2023/01/31 04:45:33;;;;;;;6.40;1.27;;;;;;;5.64;71.87;100838.03;5018817;28;20088;-48
2023/01/31 04:48:00;;;;;;;7.32;1.30;;;;;;;5.65;72.67;100814.06;5021597;28;20120;-47
2023/01/31 04:50:27;;;;;;;7.85;1.90;;;;;;;5.68;72.43;100813.28;5019101;28;20053;-48
2023/01/31 04:52:54;;;;;;;5.60;1.10;;;;;;;5.64;72.74;100810.63;5016299;28;20133;-47
2023/01/31 04:55:21;;;;;;;10.30;1.08;;;;;;;5.65;72.73;100824.34;5023323;28;20452;-48
2023/01/31 04:57:48;;;;;;;6.03;1.35;;;;;;;5.68;72.07;100816.75;5020351;28;20041;-48
2023/01/31 05:00:15;;;;;;;8.45;0.95;;;;;;;5.70;72.79;100803.91;5022429;28;20052;-48
2023/01/31 05:02:41;;;;;;;6.80;1.08;;;;;;;5.70;73.05;100806.47;5017530;28;20057;-47
2023/01/31 05:05:08;;;;;;;6.32;2.25;;;;;;;5.70;73.33;100786.78;5014218;28;20053;-48
2023/01/31 05:07:35;;;;;;;3.25;1.10;;;;;;;5.68;73.51;100782.44;5007166;28;20073;-48
2023/01/31 05:10:01;;;;;;;5.35;1.38;;;;;;;5.72;73.03;100784.25;5007751;28;20042;-48
2023/01/31 05:12:28;;;;;;;6.63;1.73;;;;;;;5.71;73.03;100779.97;5006656;28;20549;-49
2023/01/31 05:14:55;;;;;;;13.10;1.42;;;;;;;5.70;73.36;100773.94;5006841;28;20133;-49
2023/01/31 05:17:24;;;;;;;6.85;1.13;;;;;;;5.68;73.65;100780.75;5007522;28;20076;-48
2023/01/31 05:19:51;;;;;;;3.78;0.85;;;;;;;5.68;73.52;100773.03;5006910;28;20050;-48
2023/01/31 05:22:21;;;;;;;5.90;0.90;;;;;;;5.66;73.13;100775.56;5007459;28;20449;-48
2023/01/31 05:24:49;;;;;;;9.80;1.00;;;;;;;5.63;72.89;100765.19;5004339;28;20453;-48
2023/01/31 05:27:17;;;;;;;3.85;1.08;;;;;;;5.63;73.47;100769.44;5007939;28;20077;-49
2023/01/31 05:29:44;;;;;;;7.60;0.90;;;;;;;5.61;74.44;100776.25;5009029;28;20063;-48
2023/01/31 05:32:12;;;;;;;2.70;0.75;;;;;;;5.62;74.04;100768.59;5006891;28;20046;-49
2023/01/31 05:34:38;;;;;;;5.20;0.90;;;;;;;5.60;74.17;100759.94;5007543;28;20077;-49
2023/01/31 05:37:05;;;;;;;7.50;1.17;;;;;;;5.59;74.50;100768.50;5006512;28;20104;-49
2023/01/31 05:39:32;;;;;;;8.30;2.05;;;;;;;5.59;74.61;100763.34;5005861;28;20042;-49
2023/01/31 05:41:59;;;;;;;3.95;0.90;;;;;;;5.62;73.68;100768.59;5007155;28;20137;-48
2023/01/31 05:44:26;;;;;;;4.28;1.23;;;;;;;5.65;74.74;100772.94;5007060;28;20046;-49
2023/01/31 05:46:53;;;;;;;8.93;1.15;;;;;;;5.69;74.58;100768.75;5006403;28;20081;-47
2023/01/31 05:49:19;;;;;;;7.10;1.20;;;;;;;5.74;74.22;100762.06;4999609;28;20549;-48
2023/01/31 05:51:46;;;;;;;4.88;1.60;;;;;;;5.80;75.40;100764.78;5004932;28;20498;-47
2023/01/31 05:54:12;;;;;;;2.55;0.65;;;;;;;5.85;75.19;100760.66;5005722;28;20108;-50
2023/01/31 05:56:39;;;;;;;8.07;0.82;;;;;;;5.86;74.10;100767.53;5000363;28;20119;-49
2023/01/31 05:59:06;;;;;;;6.90;1.23;;;;;;;5.94;74.52;100770.31;5005172;28;20520;-48
2023/01/31 06:01:32;;;;;;;5.22;1.17;;;;;;;5.98;75.15;100759.28;5002573;28;20046;-49
2023/01/31 06:03:59;;;;;;;4.05;1.20;;;;;;;6.03;74.94;100759.41;5006103;28;20077;-48
2023/01/31 06:06:26;;;;;;;6.57;0.85;;;;;;;6.04;73.82;100761.19;5006802;28;20060;-48
2023/01/31 06:08:53;;;;;;;9.15;1.20;;;;;;;6.06;73.78;100764.69;5006498;28;20053;-48
2023/01/31 06:11:19;;;;;;;3.88;1.02;;;;;;;6.08;74.79;100763.00;5004471;28;20080;-48
2023/01/31 06:13:48;;;;;;;4.30;0.95;;;;;;;6.10;74.06;100756.22;5003792;28;20460;-48
2023/01/31 06:16:14;;;;;;;3.13;1.67;;;;;;;6.12;75.03;100762.25;5006025;28;20085;-48
2023/01/31 06:18:41;;;;;;;3.35;1.08;;;;;;;6.15;74.40;100748.63;5013112;28;20077;-48
2023/01/31 06:21:08;;;;;;;10.43;1.20;;;;;;;6.19;75.02;100749.56;5006102;28;20088;-49
2023/01/31 06:23:34;;;;;;;5.55;0.88;;;;;;;6.22;74.85;100739.38;5006101;28;20050;-49
2023/01/31 06:26:01;;;;;;;4.50;0.47;;;;;;;6.24;74.61;100737.69;5002176;28;20137;-47
2023/01/31 06:28:28;;;;;;;3.40;0.63;;;;;;;6.26;75.26;100744.66;5005584;28;20096;-47
2023/01/31 06:30:54;;;;;;;7.57;1.33;;;;;;;6.28;74.45;100739.53;5006312;28;20073;-49
2023/01/31 06:33:21;;;;;;;7.97;1.23;;;;;;;6.33;75.50;100740.53;5006740;28;20061;-49
2023/01/31 06:35:58;;;;;;;3.83;0.73;;;;;;;6.36;75.94;100747.47;5000626;28;20093;-49
2023/01/31 06:38:26;;;;;;;7.70;0.95;;;;;;;6.37;75.14;100747.50;5005645;28;20077;-49
2023/01/31 06:40:53;;;;;;;2.53;1.08;;;;;;;6.38;75.88;100746.66;5003654;28;20073;-48
2023/01/31 06:43:19;;;;;;;4.85;1.08;;;;;;;6.40;75.25;100755.31;5003977;28;20073;-49
2023/01/31 06:45:48;;;;;;;8.93;0.98;;;;;;;6.42;74.83;100743.31;5005687;28;20084;-48
2023/01/31 06:48:15;;;;;;;4.78;0.98;;;;;;;6.43;75.70;100745.06;5006085;28;20057;-47
2023/01/31 06:50:43;;;;;;;2.58;0.80;;;;;;;6.43;75.63;100734.78;5006077;28;20396;-47
2023/01/31 06:53:10;;;;;;;12.27;1.58;;;;;;;6.42;74.36;100738.19;5002939;28;20054;-48
2023/01/31 06:55:38;;;;;;;4.28;1.13;;;;;;;6.38;75.90;100726.06;5004042;28;20187;-49
2023/01/31 06:58:04;;;;;;;6.55;1.25;;;;;;;6.35;75.59;100723.41;5005582;28;20092;-48
2023/01/31 07:00:31;;;;;;;6.25;1.00;;;;;;;6.28;75.89;100706.97;5002877;28;20115;-50
2023/01/31 07:02:58;;;;;;;5.97;0.75;;;;;;;6.26;75.51;100720.63;5002484;28;20141;-53
2023/01/31 07:05:25;;;;;;;4.47;1.50;;;;;;;6.22;75.95;100713.66;5002495;28;20054;-49
2023/01/31 07:07:51;;;;;;;3.90;0.80;;;;;;;6.17;76.54;100716.97;5006200;28;20045;-49
2023/01/31 07:10:18;;;;;;;5.25;0.82;;;;;;;6.14;75.08;100705.72;5004208;28;20545;-48
2023/01/31 07:12:45;;;;;;;7.25;1.25;;;;;;;6.11;75.93;100701.38;5004458;28;20060;-49
2023/01/31 07:15:12;;;;;;;3.78;1.48;;;;;;;6.12;77.25;100708.25;5005107;28;20173;-50
2023/01/31 07:17:39;;;;;;;7.18;0.90;;;;;;;6.11;76.51;100711.66;5002821;28;20073;-51
2023/01/31 07:20:06;;;;;;;6.90;0.65;;;;;;;6.13;75.92;100710.00;5002132;28;20099;-48
2023/01/31 07:22:32;;;;;;;3.75;1.02;;;;;;;6.12;76.72;100704.81;5002469;28;20058;-50
2023/01/31 07:24:59;;;;;;;8.05;1.40;;;;;;;6.13;75.93;100725.44;5004715;28;20525;-48
2023/01/31 07:27:26;;;;;;;2.72;1.52;;;;;;;6.17;76.04;100706.69;5005245;28;20104;-49
2023/01/31 07:29:52;;;;;;;5.43;0.88;;;;;;;6.19;76.76;100718.72;5004402;28;20065;-48
2023/01/31 07:32:19;;;;;;;8.77;0.93;;;;;;;6.20;77.89;100717.88;5004557;28;20515;-50
2023/01/31 07:34:46;;;;;;;3.47;0.77;;;;;;;6.24;76.18;100722.25;5005642;28;20042;-47
2023/01/31 07:37:12;;;;;;;7.43;1.10;;;;;;;6.28;76.51;100734.38;4998816;28;20046;-49
2023/01/31 07:39:39;;;;;;;4.60;1.23;;;;;;;6.30;77.90;100737.88;4998745;28;20073;-50
2023/01/31 07:42:05;;;;;;;4.13;1.10;;;;;;;6.38;77.17;100732.94;5001384;28;20133;-52
2023/01/31 07:44:32;;;;;;;4.18;0.68;;;;;;;6.39;76.16;100722.66;4994858;28;20043;-48
2023/01/31 07:46:58;;;;;;;9.00;1.45;;;;;;;6.44;77.08;100735.66;4993204;28;20042;-51
2023/01/31 07:49:25;;;;;;;3.72;1.08;;;;;;;6.48;77.04;100731.47;4996135;28;20137;-50
2023/01/31 07:51:51;;;;;;;6.57;1.52;;;;;;;6.52;76.34;100728.13;4993772;28;20124;-47
2023/01/31 07:54:18;;;;;;;7.15;0.90;;;;;;;6.54;76.06;100719.63;4993161;28;20077;-52
2023/01/31 07:56:45;;;;;;;8.18;1.08;;;;;;;6.58;75.99;100723.13;4996434;28;20047;-48
2023/01/31 07:59:13;;;;;;;6.40;0.77;;;;;;;6.59;76.50;100719.75;4995161;28;20050;-49
2023/01/31 08:04:26;;;;;;;6.40;1.20;;;;;;;6.64;77.62;100713.00;4995164;28;20613;-51
2023/01/31 08:06:54;;;;;;;8.40;1.25;;;;;;;6.67;77.60;100710.50;4993799;28;20051;-51
2023/01/31 08:09:23;;;;;;;5.05;1.38;;;;;;;6.72;76.83;100712.31;4996363;28;20108;-48
2023/01/31 08:11:50;;;;;;;6.70;1.88;;;;;;;6.75;77.68;100709.81;4994176;28;20081;-50
2023/01/31 08:14:19;;;;;;;3.88;1.30;;;;;;;6.79;77.17;100714.19;4995827;28;20050;-48
2023/01/31 08:16:46;;;;;;;7.82;1.30;;;;;;;6.82;76.53;100706.53;4993776;28;20061;-48
2023/01/31 08:19:13;;;;;;;8.90;1.48;;;;;;;6.88;76.92;100706.66;4994404;28;20047;-47
2023/01/31 08:21:39;;;;;;;3.55;1.20;;;;;;;6.89;77.79;100704.97;4999925;28;20069;-48
2023/01/31 08:24:06;;;;;;;4.88;0.98;;;;;;;6.91;77.71;100691.28;5002890;28;20097;-50
2023/01/31 08:26:33;;;;;;;4.97;1.23;;;;;;;6.91;76.84;100696.44;5003909;28;20041;-49
2023/01/31 08:28:59;;;;;;;2.60;1.15;;;;;;;6.91;76.99;100686.16;5005405;28;20057;-48
2023/01/31 08:31:27;;;;;;;8.13;1.20;;;;;;;6.91;77.50;100686.16;5000917;28;20111;-49
2023/01/31 08:33:54;;;;;;;2.88;0.75;;;;;;;6.93;77.44;100688.75;5008486;28;20505;-49
2023/01/31 08:36:24;;;;;;;2.33;0.80;;;;;;;6.92;77.03;100698.19;5004621;28;20096;-49
2023/01/31 08:38:51;;;;;;;5.90;0.88;;;;;;;6.96;78.13;100685.38;4997947;28;20128;-52
2023/01/31 08:41:19;;;;;;;2.55;0.80;;;;;;;6.99;76.95;100682.88;5014288;28;20053;-51
2023/01/31 08:43:47;;;;;;;2.72;0.55;;;;;;;7.00;76.47;100684.59;5002827;28;20050;-48
2023/01/31 08:46:26;;;;;;;3.58;0.77;;;;;;;6.94;77.46;100691.38;5008586;28;20053;-47
2023/01/31 08:48:53;;;;;;;3.10;0.80;;;;;;;7.02;78.42;100682.91;5000630;28;20054;-48
2023/01/31 08:51:20;;;;;;;7.03;1.00;;;;;;;7.05;77.96;100693.28;5008669;28;20047;-50
2023/01/31 08:53:47;;;;;;;2.65;1.10;;;;;;;7.25;77.76;100700.59;5007227;28;20492;-49
2023/01/31 08:56:15;;;;;;;6.15;1.50;;;;;;;7.56;77.22;100707.25;5006837;28;20046;-49
2023/01/31 08:58:43;;;;;;;2.80;0.93;;;;;;;7.91;76.72;100705.34;5008471;28;20042;-50
2023/01/31 09:01:12;;;;;;;4.85;1.38;;;;;;;8.66;76.95;100704.94;5006831;28;20141;-51
2023/01/31 09:03:40;;;;;;;6.28;0.90;;;;;;;9.80;76.08;100703.00;5009979;28;20045;-49
2023/01/31 09:06:14;;;;;;;5.50;1.25;;;;;;;10.98;74.70;100709.19;5006536;28;20050;-48
2023/01/31 09:08:41;;;;;;;3.70;0.85;;;;;;;11.81;72.34;100701.78;5007043;28;20137;-47
2023/01/31 09:11:07;;;;;;;4.07;0.95;;;;;;;12.40;70.85;100706.22;5006656;28;20379;-49
2023/01/31 09:13:35;;;;;;;2.00;0.60;;;;;;;12.46;69.57;100707.09;5006337;28;20046;-50
2023/01/31 09:16:10;;;;;;;4.47;0.52;;;;;;;12.46;68.08;100716.59;5004948;28;20148;-51
2023/01/31 09:18:38;;;;;;;3.08;0.80;;;;;;;12.79;68.49;100714.88;5007292;28;20046;-51
2023/01/31 09:21:09;;;;;;;3.78;0.98;;;;;;;13.21;67.42;100716.53;5006647;28;20137;-51
2023/01/31 09:23:36;;;;;;;5.85;0.57;;;;;;;13.40;66.76;100722.53;5004621;28;20116;-49
2023/01/31 09:26:04;;;;;;;4.07;1.50;;;;;;;14.04;66.61;100719.63;5007859;28;20042;-49
2023/01/31 09:28:31;;;;;;;5.80;1.35;;;;;;;14.89;65.81;100709.41;5007125;28;20080;-51
2023/01/31 09:31:04;;;;;;;7.53;1.83;;;;;;;15.79;63.98;100728.38;5003746;28;20100;-51
2023/01/31 09:33:32;;;;;;;4.63;1.13;;;;;;;16.51;62.36;100727.38;5004107;28;20053;-50
2023/01/31 09:36:01;;;;;;;3.70;2.40;;;;;;;17.08;61.16;100717.66;5006960;28;20558;-52
2023/01/31 09:38:28;;;;;;;4.15;0.80;;;;;;;17.68;59.46;100723.44;5005039;28;20077;-52
2023/01/31 09:40:57;;;;;;;2.85;2.25;;;;;;;18.23;59.03;100725.72;5007777;28;21559;-51
2023/01/31 09:43:29;;;;;;;1.35;0.60;;;;;;;18.69;57.50;100725.50;4999053;28;20061;-53
2023/01/31 09:46:01;;;;;;;3.08;2.00;;;;;;;19.17;56.19;100718.13;5002333;28;20916;-48
2023/01/31 09:48:34;;;;;;;1.85;0.40;;;;;;;19.57;55.07;100731.00;5007386;28;20104;-49
2023/01/31 09:51:03;;;;;;;1.88;0.40;;;;;;;20.02;55.04;100738.44;5002568;28;20046;-52
2023/01/31 09:53:33;;;;;;;2.40;0.52;;;;;;;20.62;54.43;100747.06;5002575;28;20065;-49
2023/01/31 10:01:59;;;;;;;4.40;1.92;;;;;;;21.90;50.48;100755.72;5034854;27;20395;-51
2023/01/31 10:07:17;;;;;;;1.70;0.43;;;;;;;22.56;48.42;100741.63;5044797;27;20937;-50
2023/01/31 10:09:51;;;;;;;2.88;0.77;;;;;;;22.37;46.95;100744.16;5020179;28;20037;-50
2023/01/31 10:12:23;;;;;;;2.63;0.60;;;;;;;21.68;45.27;100746.81;5018735;28;20073;-50
2023/01/31 10:15:01;;;;;;;2.95;0.93;;;;;;;20.62;45.84;100760.22;5016768;28;20052;-48
2023/01/31 10:17:37;;;;;;;0.73;0.38;;;;;;;19.26;44.96;100733.59;5016373;28;20082;-50
2023/01/31 10:20:43;;;;;;;1.42;0.60;;;;;;;19.21;45.56;100735.50;5017964;28;20050;-50
2023/01/31 10:25:56;;;;;;;1.67;0.60;;;;;;;18.82;45.84;100733.03;5036037;28;20430;-52
2023/01/31 10:28:31;;;;;;;3.08;1.00;;;;;;;17.99;46.06;100743.72;5008503;28;20042;-52
2023/01/31 10:34:11;;;;;;;2.90;1.95;;;;;;;17.07;47.46;100722.06;5046426;27;20413;-51
2023/01/31 10:42:22;;;;;;;2.83;0.32;;;;;;;16.05;45.92;100714.97;5055516;28;20400;-53
2023/01/31 10:44:57;;;;;;;3.30;0.50;;;;;;;15.63;45.82;100736.44;5042071;28;20500;-52
2023/01/31 10:50:24;;;;;;;4.28;0.82;;;;;;;15.28;46.42;100758.59;5028936;28;20394;-52
2023/01/31 10:58:03;;;;;;;4.88;1.73;;;;;;;14.78;46.90;100733.00;5062996;27;20404;-49
2023/01/31 11:00:33;;;;;;;4.60;2.35;;;;;;;14.32;48.11;100740.28;5037523;28;20052;-51
2023/01/31 11:02:59;;;;;;;4.53;2.80;;;;;;;13.94;49.16;100738.78;5029463;28;20080;-51
2023/01/31 11:05:28;;;;;;;2.85;1.33;;;;;;;13.65;49.10;100742.41;5031742;28;20052;-52
2023/01/31 11:08:02;;;;;;;3.95;1.27;;;;;;;13.25;50.00;100736.47;5038844;28;20567;-54
2023/01/31 11:10:30;;;;;;;3.80;2.17;;;;;;;12.79;50.95;100746.06;5038073;28;20045;-52
2023/01/31 11:13:00;;;;;;;7.55;1.60;;;;;;;12.64;51.14;100759.06;5032755;28;20092;-52
2023/01/31 11:15:47;;;;;;;5.90;1.75;;;;;;;12.40;50.86;100737.41;5044057;28;20053;-49
2023/01/31 11:18:24;;;;;;;6.38;1.63;;;;;;;12.46;50.89;100747.78;5035652;28;20038;-49
2023/01/31 11:20:51;;;;;;;5.18;2.10;;;;;;;12.48;51.18;100748.66;5037152;28;20095;-51
2023/01/31 11:23:23;;;;;;;7.68;1.90;;;;;;;12.48;50.37;100735.69;5028421;28;20525;-51
2023/01/31 11:25:53;;;;;;;4.10;1.20;;;;;;;12.04;50.46;100738.19;5039282;28;20140;-51
2023/01/31 11:28:38;;;;;;;8.40;1.00;;;;;;;11.95;51.32;100732.94;5033122;28;20401;-51
2023/01/31 11:31:16;;;;;;;4.30;1.63;;;;;;;11.79;51.52;100740.69;5026289;28;20053;-51
2023/01/31 11:33:54;;;;;;;9.07;1.90;;;;;;;11.89;52.66;100735.56;5038147;28;20132;-51
2023/01/31 11:36:22;;;;;;;8.70;1.77;;;;;;;11.85;52.95;100733.81;5039411;28;20045;-49
2023/01/31 11:38:50;;;;;;;8.60;1.75;;;;;;;11.71;51.73;100752.78;5034317;28;20045;-53
2023/01/31 11:41:36;;;;;;;9.25;1.75;;;;;;;11.57;52.00;100753.59;5035688;28;20057;-51
2023/01/31 11:52:14;;;;;;;4.80;1.55;;;;;;;11.07;53.19;100738.66;5094311;27;20394;-53
2023/01/31 11:54:48;;;;;;;4.57;2.78;;;;;;;11.17;53.47;100727.44;5074675;28;20064;-51
2023/01/31 11:57:20;;;;;;;10.73;2.33;;;;;;;11.17;53.09;100719.66;5061479;28;20053;-51
2023/01/31 11:59:50;;;;;;;9.23;3.03;;;;;;;11.10;51.93;100729.16;5058348;28;20122;-49
2023/01/31 12:05:09;;;;;;;3.70;1.17;;;;;;;10.95;52.07;100744.59;5031992;28;20413;-51
2023/01/31 12:07:43;;;;;;;7.10;0.77;;;;;;;11.04;52.03;100735.16;5018975;28;20607;-50
2023/01/31 12:13:17;;;;;;;6.57;1.17;;;;;;;11.00;52.95;100746.38;5032377;28;20401;-50
2023/01/31 12:18:51;;;;;;;6.68;1.40;;;;;;;10.84;52.29;100747.13;5040401;28;20432;-50
2023/01/31 12:21:49;;;;;;;6.47;0.70;;;;;;;10.88;52.53;100738.50;5007498;28;20131;-48
2023/01/31 12:30:21;;;;;;;6.97;2.00;;;;;;;10.72;53.49;100729.75;5102433;27;21897;-51
2023/01/31 12:39:13;;;;;;;6.32;0.93;;;;;;;10.63;54.08;100727.94;5055309;27;20406;-49
2023/01/31 12:41:53;;;;;;;4.07;0.85;;;;;;;10.62;54.08;100723.63;5049199;28;20068;-51
2023/01/31 12:47:17;;;;;;;5.95;2.20;;;;;;;10.70;54.23;100736.66;5047731;27;20409;-48
2023/01/31 12:55:36;;;;;;;8.20;1.40;;;;;;;10.96;55.95;100741.16;5040968;28;20398;-51
2023/01/31 13:01:12;;;;;;;2.92;1.33;;;;;;;10.83;56.45;100724.63;5046150;28;20406;-50
2023/01/31 13:04:19;;;;;;;4.13;1.00;;;;;;;10.76;55.66;100726.31;5013883;28;20056;-50
2023/01/31 13:06:52;;;;;;;7.22;0.73;;;;;;;10.78;57.03;100733.25;5003733;28;20050;-49
2023/01/31 13:09:24;;;;;;;6.60;1.63;;;;;;;10.70;56.96;100734.91;5024536;28;20049;-52
2023/01/31 13:11:55;;;;;;;8.15;0.85;;;;;;;10.56;55.25;100723.56;5008942;28;20534;-50
2023/01/31 13:14:26;;;;;;;2.00;0.75;;;;;;;10.45;55.36;100728.66;5004048;28;20070;-50
2023/01/31 13:16:58;;;;;;;5.88;1.23;;;;;;;10.28;55.42;100729.34;5005942;28;20525;-51
2023/01/31 13:19:32;;;;;;;8.93;0.88;;;;;;;10.28;55.18;100722.47;5014013;28;20053;-52
2023/01/31 13:22:04;;;;;;;8.15;1.17;;;;;;;10.16;55.07;100727.50;5017182;28;20560;-49
2023/01/31 13:24:38;;;;;;;4.60;1.00;;;;;;;10.02;54.58;100729.94;4999207;28;20079;-50
2023/01/31 13:27:18;;;;;;;3.30;0.60;;;;;;;9.98;55.05;100729.06;4991635;28;20057;-50
2023/01/31 13:29:58;;;;;;;8.13;1.30;;;;;;;10.00;54.78;100737.69;5008050;28;20042;-48
2023/01/31 13:32:37;;;;;;;8.52;0.85;;;;;;;9.86;54.30;100744.47;5004758;28;20077;-49
2023/01/31 13:37:57;;;;;;;7.75;1.98;;;;;;;9.94;55.01;100773.00;5022977;28;20390;-49
2023/01/31 13:40:28;;;;;;;6.10;0.60;;;;;;;9.93;54.62;100766.09;5000052;28;20096;-50
2023/01/31 13:43:00;;;;;;;9.15;1.10;;;;;;;9.94;54.55;100778.19;5000616;28;20054;-52
2023/01/31 13:45:33;;;;;;;6.22;1.17;;;;;;;9.96;54.88;100790.28;4995368;28;20038;-52